sensor_id;sensor_type;location;lat;lon;timestamp;pressure;altitude;pressure_sealevel;temperature;humidity
6514;BME280;3290;47.716;9.070;2022-08-05T00:01:18;96587.97;;;24.53;75.53
6514;BME280;3290;47.716;9.070;2022-08-05T00:03:48;96584.50;;;24.53;76.61
6514;BME280;3290;47.716;9.070;2022-08-05T00:06:14;96582.50;;;24.66;76.24
6514;BME280;3290;47.716;9.070;2022-08-05T00:08:40;96592.31;;;24.79;75.48
6514;BME280;3290;47.716;9.070;2022-08-05T00:11:09;96586.06;;;24.92;74.52
6514;BME280;3290;47.716;9.070;2022-08-05T00:13:37;96585.72;;;24.85;74.76
6514;BME280;3290;47.716;9.070;2022-08-05T00:16:04;96584.13;;;24.84;74.67
6514;BME280;3290;47.716;9.070;2022-08-05T00:18:30;96586.03;;;24.84;74.46
6514;BME280;3290;47.716;9.070;2022-08-05T00:20:55;96592.66;;;24.86;73.89
6514;BME280;3290;47.716;9.070;2022-08-05T00:23:21;96594.47;;;25.07;73.04
6514;BME280;3290;47.716;9.070;2022-08-05T00:25:47;96598.34;;;24.93;73.66
6514;BME280;3290;47.716;9.070;2022-08-05T00:28:13;96593.38;;;24.61;74.23
6514;BME280;3290;47.716;9.070;2022-08-05T00:30:39;96607.63;;;24.79;74.87
6514;BME280;3290;47.716;9.070;2022-08-05T00:33:05;96604.81;;;24.92;74.31
6514;BME280;3290;47.716;9.070;2022-08-05T00:35:30;96608.66;;;24.99;73.58
6514;BME280;3290;47.716;9.070;2022-08-05T00:37:56;96607.41;;;25.05;73.92
6514;BME280;3290;47.716;9.070;2022-08-05T00:40:23;96616.06;;;24.94;74.60
6514;BME280;3290;47.716;9.070;2022-08-05T00:42:48;96618.22;;;24.92;75.09
6514;BME280;3290;47.716;9.070;2022-08-05T00:45:14;96619.00;;;24.93;75.41
6514;BME280;3290;47.716;9.070;2022-08-05T00:47:39;96617.81;;;25.07;75.78
6514;BME280;3290;47.716;9.070;2022-08-05T00:50:06;96609.78;;;25.15;74.95
6514;BME280;3290;47.716;9.070;2022-08-05T00:52:31;96612.81;;;24.75;76.85
6514;BME280;3290;47.716;9.070;2022-08-05T00:54:56;96617.09;;;24.76;77.48
6514;BME280;3290;47.716;9.070;2022-08-05T00:57:22;96607.09;;;24.68;77.25
6514;BME280;3290;47.716;9.070;2022-08-05T00:59:47;96611.69;;;24.68;77.16
6514;BME280;3290;47.716;9.070;2022-08-05T01:02:13;96610.94;;;24.84;76.47
6514;BME280;3290;47.716;9.070;2022-08-05T01:04:38;96618.34;;;24.79;75.78
6514;BME280;3290;47.716;9.070;2022-08-05T01:07:04;96619.44;;;24.78;76.45
6514;BME280;3290;47.716;9.070;2022-08-05T01:09:29;96627.47;;;24.69;76.78
6514;BME280;3290;47.716;9.070;2022-08-05T01:11:58;96633.03;;;24.90;75.54
6514;BME280;3290;47.716;9.070;2022-08-05T01:14:56;96625.84;;;25.07;75.77
6514;BME280;3290;47.716;9.070;2022-08-05T01:17:32;96631.06;;;25.03;75.19
6514;BME280;3290;47.716;9.070;2022-08-05T01:28:22;96640.44;;;24.84;77.63
6514;BME280;3290;47.716;9.070;2022-08-05T01:30:56;96649.28;;;24.93;77.78
6514;BME280;3290;47.716;9.070;2022-08-05T01:33:30;96650.47;;;25.09;77.17
6514;BME280;3290;47.716;9.070;2022-08-05T01:35:58;96653.31;;;25.12;76.53
6514;BME280;3290;47.716;9.070;2022-08-05T01:38:26;96661.41;;;25.21;76.32
6514;BME280;3290;47.716;9.070;2022-08-05T01:40:53;96665.00;;;25.08;76.50
6514;BME280;3290;47.716;9.070;2022-08-05T01:43:20;96681.72;;;25.05;77.52
6514;BME280;3290;47.716;9.070;2022-08-05T01:45:47;96692.63;;;25.17;77.13
6514;BME280;3290;47.716;9.070;2022-08-05T01:48:14;96691.09;;;25.33;75.69
6514;BME280;3290;47.716;9.070;2022-08-05T01:50:40;96691.75;;;25.46;73.71
6514;BME280;3290;47.716;9.070;2022-08-05T01:53:10;96688.44;;;25.49;73.17
6514;BME280;3290;47.716;9.070;2022-08-05T01:55:37;96690.31;;;25.40;74.27
6514;BME280;3290;47.716;9.070;2022-08-05T01:58:05;96697.88;;;25.38;75.20
6514;BME280;3290;47.716;9.070;2022-08-05T02:00:32;96707.56;;;25.48;75.44
6514;BME280;3290;47.716;9.070;2022-08-05T02:03:03;96703.13;;;25.52;73.02
6514;BME280;3290;47.716;9.070;2022-08-05T02:05:33;96701.59;;;25.59;71.32
6514;BME280;3290;47.716;9.070;2022-08-05T02:08:00;96712.50;;;25.71;69.56
6514;BME280;3290;47.716;9.070;2022-08-05T02:10:28;96714.09;;;25.89;66.68
6514;BME280;3290;47.716;9.070;2022-08-05T02:13:00;96712.53;;;26.05;65.42
6514;BME280;3290;47.716;9.070;2022-08-05T02:15:34;96722.50;;;26.29;61.09
6514;BME280;3290;47.716;9.070;2022-08-05T02:18:03;96730.66;;;26.58;61.77
6514;BME280;3290;47.716;9.070;2022-08-05T02:20:35;96724.47;;;26.83;61.88
6514;BME280;3290;47.716;9.070;2022-08-05T02:23:07;96727.88;;;27.00;62.94
6514;BME280;3290;47.716;9.070;2022-08-05T02:25:35;96727.19;;;27.20;62.23
6514;BME280;3290;47.716;9.070;2022-08-05T02:28:02;96718.97;;;27.16;63.42
6514;BME280;3290;47.716;9.070;2022-08-05T02:30:43;96711.22;;;27.15;65.38
6514;BME280;3290;47.716;9.070;2022-08-05T02:33:14;96718.13;;;26.96;64.85
6514;BME280;3290;47.716;9.070;2022-08-05T02:35:41;96713.50;;;27.33;66.20
6514;BME280;3290;47.716;9.070;2022-08-05T02:38:08;96706.56;;;27.32;66.77
6514;BME280;3290;47.716;9.070;2022-08-05T02:40:35;96712.59;;;27.58;66.36
6514;BME280;3290;47.716;9.070;2022-08-05T02:43:03;96715.00;;;27.80;66.63
6514;BME280;3290;47.716;9.070;2022-08-05T02:45:30;96712.69;;;27.70;66.74
6514;BME280;3290;47.716;9.070;2022-08-05T02:47:58;96721.75;;;27.85;67.04
6514;BME280;3290;47.716;9.070;2022-08-05T02:50:26;96727.56;;;27.76;69.12
6514;BME280;3290;47.716;9.070;2022-08-05T02:52:53;96724.09;;;27.01;69.95
6514;BME280;3290;47.716;9.070;2022-08-05T02:55:19;96730.66;;;26.58;73.42
6514;BME280;3290;47.716;9.070;2022-08-05T02:57:47;96716.31;;;25.87;77.67
6514;BME280;3290;47.716;9.070;2022-08-05T03:00:14;96724.03;;;25.72;79.21
6514;BME280;3290;47.716;9.070;2022-08-05T03:02:40;96720.56;;;25.71;80.65
6514;BME280;3290;47.716;9.070;2022-08-05T03:05:10;96720.88;;;25.95;79.33
6514;BME280;3290;47.716;9.070;2022-08-05T03:07:37;96723.59;;;26.12;77.51
6514;BME280;3290;47.716;9.070;2022-08-05T03:10:04;96719.16;;;26.16;75.76
6514;BME280;3290;47.716;9.070;2022-08-05T03:12:35;96724.16;;;26.76;70.04
6514;BME280;3290;47.716;9.070;2022-08-05T03:15:06;96724.41;;;26.99;65.76
6514;BME280;3290;47.716;9.070;2022-08-05T03:17:31;96722.69;;;27.32;65.03
6514;BME280;3290;47.716;9.070;2022-08-05T03:19:57;96715.72;;;27.31;63.08
6514;BME280;3290;47.716;9.070;2022-08-05T03:22:23;96715.50;;;27.53;62.67
6514;BME280;3290;47.716;9.070;2022-08-05T03:24:49;96711.72;;;27.45;61.11
6514;BME280;3290;47.716;9.070;2022-08-05T03:27:14;96718.97;;;27.74;60.07
6514;BME280;3290;47.716;9.070;2022-08-05T03:29:41;96727.78;;;28.11;58.94
6514;BME280;3290;47.716;9.070;2022-08-05T03:32:08;96716.88;;;28.08;57.95
6514;BME280;3290;47.716;9.070;2022-08-05T03:34:34;96719.56;;;28.28;57.59
6514;BME280;3290;47.716;9.070;2022-08-05T03:37:01;96714.25;;;28.20;58.42
6514;BME280;3290;47.716;9.070;2022-08-05T03:39:27;96709.09;;;27.86;60.03
6514;BME280;3290;47.716;9.070;2022-08-05T03:41:53;96704.31;;;27.63;59.27
6514;BME280;3290;47.716;9.070;2022-08-05T03:44:18;96687.38;;;27.62;58.19
6514;BME280;3290;47.716;9.070;2022-08-05T03:46:43;96694.28;;;27.43;59.52
6514;BME280;3290;47.716;9.070;2022-08-05T03:49:09;96691.72;;;27.55;59.26
6514;BME280;3290;47.716;9.070;2022-08-05T03:51:38;96690.44;;;27.52;59.24
6514;BME280;3290;47.716;9.070;2022-08-05T03:54:16;96684.94;;;27.49;59.64
6514;BME280;3290;47.716;9.070;2022-08-05T03:56:45;96686.72;;;27.45;59.39
6514;BME280;3290;47.716;9.070;2022-08-05T03:59:36;96688.38;;;26.92;63.10
6514;BME280;3290;47.716;9.070;2022-08-05T04:02:06;96684.63;;;26.85;63.83
6514;BME280;3290;47.716;9.070;2022-08-05T04:04:32;96690.44;;;26.78;64.12
6514;BME280;3290;47.716;9.070;2022-08-05T04:06:59;96687.94;;;26.73;63.11
6514;BME280;3290;47.716;9.070;2022-08-05T04:09:26;96699.84;;;26.64;63.51
6514;BME280;3290;47.716;9.070;2022-08-05T04:11:53;96694.03;;;26.45;64.62
6514;BME280;3290;47.716;9.070;2022-08-05T04:14:19;96701.91;;;26.58;64.19
6514;BME280;3290;47.716;9.070;2022-08-05T04:16:45;96692.63;;;26.39;64.84
6514;BME280;3290;47.716;9.070;2022-08-05T04:19:11;96700.97;;;26.21;66.04
6514;BME280;3290;47.716;9.070;2022-08-05T04:21:38;96692.16;;;25.95;67.40
6514;BME280;3290;47.716;9.070;2022-08-05T04:24:03;96689.47;;;25.87;67.59
6514;BME280;3290;47.716;9.070;2022-08-05T04:26:29;96681.69;;;26.11;66.68
6514;BME280;3290;47.716;9.070;2022-08-05T04:28:55;96683.91;;;26.00;67.08
6514;BME280;3290;47.716;9.070;2022-08-05T04:31:21;96682.81;;;26.01;67.87
6514;BME280;3290;47.716;9.070;2022-08-05T04:33:47;96678.69;;;26.04;66.90
6514;BME280;3290;47.716;9.070;2022-08-05T04:36:12;96676.50;;;26.06;66.65
6514;BME280;3290;47.716;9.070;2022-08-05T04:38:41;96676.78;;;26.13;66.30
6514;BME280;3290;47.716;9.070;2022-08-05T04:41:06;96671.44;;;26.29;66.09
6514;BME280;3290;47.716;9.070;2022-08-05T04:43:32;96678.56;;;26.34;66.15
6514;BME280;3290;47.716;9.070;2022-08-05T04:45:58;96667.50;;;26.27;66.16
6514;BME280;3290;47.716;9.070;2022-08-05T04:48:24;96670.66;;;26.29;66.00
6514;BME280;3290;47.716;9.070;2022-08-05T04:50:49;96671.44;;;26.29;65.71
6514;BME280;3290;47.716;9.070;2022-08-05T04:53:16;96665.28;;;26.37;65.49
6514;BME280;3290;47.716;9.070;2022-08-05T04:55:43;96667.97;;;26.37;65.24
6514;BME280;3290;47.716;9.070;2022-08-05T04:58:10;96666.34;;;26.53;64.20
6514;BME280;3290;47.716;9.070;2022-08-05T05:00:37;96668.97;;;26.61;63.74
6514;BME280;3290;47.716;9.070;2022-08-05T05:03:04;96674.81;;;26.72;63.68
6514;BME280;3290;47.716;9.070;2022-08-05T05:05:30;96666.41;;;26.73;63.38
6514;BME280;3290;47.716;9.070;2022-08-05T05:08:01;96664.47;;;26.82;62.76
6514;BME280;3290;47.716;9.070;2022-08-05T05:10:27;96673.19;;;26.88;62.51
6514;BME280;3290;47.716;9.070;2022-08-05T05:12:53;96675.06;;;26.96;62.06
6514;BME280;3290;47.716;9.070;2022-08-05T05:15:18;96668.25;;;26.98;61.86
6514;BME280;3290;47.716;9.070;2022-08-05T05:17:44;96674.31;;;26.87;61.63
6514;BME280;3290;47.716;9.070;2022-08-05T05:20:11;96681.06;;;27.30;60.53
6514;BME280;3290;47.716;9.070;2022-08-05T05:22:36;96683.47;;;27.23;60.43
6514;BME280;3290;47.716;9.070;2022-08-05T05:25:02;96682.00;;;27.34;62.94
6514;BME280;3290;47.716;9.070;2022-08-05T05:27:29;96684.84;;;27.37;63.26
6514;BME280;3290;47.716;9.070;2022-08-05T05:29:55;96686.53;;;27.41;64.27
6514;BME280;3290;47.716;9.070;2022-08-05T05:32:21;96692.44;;;27.64;63.93
6514;BME280;3290;47.716;9.070;2022-08-05T05:34:46;96697.94;;;27.47;65.10
6514;BME280;3290;47.716;9.070;2022-08-05T05:37:12;96703.88;;;27.61;64.43
6514;BME280;3290;47.716;9.070;2022-08-05T05:39:39;96712.59;;;27.58;64.88
6514;BME280;3290;47.716;9.070;2022-08-05T05:42:04;96716.56;;;27.80;65.11
6514;BME280;3290;47.716;9.070;2022-08-05T05:44:30;96713.78;;;27.40;68.73
6514;BME280;3290;47.716;9.070;2022-08-05T05:46:55;96723.72;;;27.56;66.89
6514;BME280;3290;47.716;9.070;2022-08-05T05:49:20;96722.81;;;27.73;66.11
6514;BME280;3290;47.716;9.070;2022-08-05T05:51:46;96728.31;;;27.96;66.22
6514;BME280;3290;47.716;9.070;2022-08-05T05:54:11;96725.72;;;27.88;63.93
6514;BME280;3290;47.716;9.070;2022-08-05T05:56:37;96738.78;;;27.78;64.96
6514;BME280;3290;47.716;9.070;2022-08-05T05:59:04;96741.31;;;28.23;64.29
6514;BME280;3290;47.716;9.070;2022-08-05T06:01:31;96759.63;;;27.60;65.49
6514;BME280;3290;47.716;9.070;2022-08-05T06:03:56;96767.75;;;27.80;64.30
6514;BME280;3290;47.716;9.070;2022-08-05T06:06:21;96775.19;;;27.55;64.83
6514;BME280;3290;47.716;9.070;2022-08-05T06:08:47;96788.22;;;27.73;64.31
6514;BME280;3290;47.716;9.070;2022-08-05T06:11:13;96806.72;;;27.83;62.78
6514;BME280;3290;47.716;9.070;2022-08-05T06:13:38;96827.88;;;27.93;63.47
6514;BME280;3290;47.716;9.070;2022-08-05T06:16:03;96819.31;;;27.99;63.90
6514;BME280;3290;47.716;9.070;2022-08-05T06:18:29;96820.16;;;28.20;64.13
6514;BME280;3290;47.716;9.070;2022-08-05T06:20:54;96810.81;;;28.38;62.73
6514;BME280;3290;47.716;9.070;2022-08-05T06:23:20;96806.94;;;28.67;61.49
6514;BME280;3290;47.716;9.070;2022-08-05T06:25:45;96818.25;;;28.81;60.77
6514;BME280;3290;47.716;9.070;2022-08-05T06:28:10;96820.09;;;28.89;60.78
6514;BME280;3290;47.716;9.070;2022-08-05T06:30:36;96823.06;;;28.76;61.32
6514;BME280;3290;47.716;9.070;2022-08-05T06:33:01;96823.84;;;28.36;61.46
6514;BME280;3290;47.716;9.070;2022-08-05T06:35:27;96827.53;;;29.04;60.26
6514;BME280;3290;47.716;9.070;2022-08-05T06:37:52;96823.84;;;28.76;59.99
6514;BME280;3290;47.716;9.070;2022-08-05T06:40:17;96836.69;;;28.39;60.57
6514;BME280;3290;47.716;9.070;2022-08-05T06:42:43;96841.66;;;28.49;60.45
6514;BME280;3290;47.716;9.070;2022-08-05T06:45:08;96845.31;;;27.95;61.63
6514;BME280;3290;47.716;9.070;2022-08-05T06:47:34;96842.94;;;28.71;60.04
6514;BME280;3290;47.716;9.070;2022-08-05T06:49:59;96846.34;;;28.80;59.83
6514;BME280;3290;47.716;9.070;2022-08-05T06:52:24;96841.50;;;28.74;59.47
6514;BME280;3290;47.716;9.070;2022-08-05T06:54:50;96847.00;;;28.57;60.02
6514;BME280;3290;47.716;9.070;2022-08-05T06:57:15;96843.31;;;28.82;58.03
6514;BME280;3290;47.716;9.070;2022-08-05T06:59:43;96854.53;;;28.72;58.24
6514;BME280;3290;47.716;9.070;2022-08-05T07:02:08;96849.66;;;28.65;56.55
6514;BME280;3290;47.716;9.070;2022-08-05T07:04:35;96849.94;;;29.48;54.74
6514;BME280;3290;47.716;9.070;2022-08-05T07:07:00;96852.41;;;29.86;53.02
6514;BME280;3290;47.716;9.070;2022-08-05T07:09:25;96858.09;;;29.72;52.39
6514;BME280;3290;47.716;9.070;2022-08-05T07:11:51;96862.59;;;29.68;52.83
6514;BME280;3290;47.716;9.070;2022-08-05T07:14:16;96850.25;;;29.79;51.28
6514;BME280;3290;47.716;9.070;2022-08-05T07:17:01;96857.22;;;30.16;50.29
6514;BME280;3290;47.716;9.070;2022-08-05T07:19:27;96852.72;;;30.08;50.79
6514;BME280;3290;47.716;9.070;2022-08-05T07:21:53;96852.78;;;30.59;49.54
6514;BME280;3290;47.716;9.070;2022-08-05T07:24:19;96854.97;;;30.18;48.96
6514;BME280;3290;47.716;9.070;2022-08-05T07:26:45;96859.22;;;30.54;49.27
6514;BME280;3290;47.716;9.070;2022-08-05T07:29:11;96869.34;;;30.57;47.33
6514;BME280;3290;47.716;9.070;2022-08-05T07:31:37;96865.78;;;30.41;48.07
6514;BME280;3290;47.716;9.070;2022-08-05T07:34:03;96870.69;;;29.56;49.25
6514;BME280;3290;47.716;9.070;2022-08-05T07:36:28;96872.47;;;29.64;49.31
6514;BME280;3290;47.716;9.070;2022-08-05T07:38:54;96884.94;;;30.13;50.20
6514;BME280;3290;47.716;9.070;2022-08-05T07:41:21;96879.53;;;30.13;49.49
6514;BME280;3290;47.716;9.070;2022-08-05T07:43:47;96889.00;;;30.42;50.03
6514;BME280;3290;47.716;9.070;2022-08-05T07:46:13;96884.91;;;30.60;49.63
6514;BME280;3290;47.716;9.070;2022-08-05T07:48:39;96890.81;;;30.50;50.37
6514;BME280;3290;47.716;9.070;2022-08-05T07:51:04;96891.81;;;30.10;50.09
6514;BME280;3290;47.716;9.070;2022-08-05T07:53:30;96898.72;;;30.31;49.02
6514;BME280;3290;47.716;9.070;2022-08-05T07:55:55;96898.13;;;30.38;48.97
6514;BME280;3290;47.716;9.070;2022-08-05T07:58:21;96894.81;;;30.68;47.89
6514;BME280;3290;47.716;9.070;2022-08-05T08:00:46;96895.75;;;31.38;46.28
6514;BME280;3290;47.716;9.070;2022-08-05T08:03:12;96897.63;;;30.71;46.45
6514;BME280;3290;47.716;9.070;2022-08-05T08:05:39;96901.56;;;30.74;46.57
6514;BME280;3290;47.716;9.070;2022-08-05T08:08:11;96897.75;;;30.75;46.84
6514;BME280;3290;47.716;9.070;2022-08-05T08:10:37;96897.53;;;30.56;47.91
6514;BME280;3290;47.716;9.070;2022-08-05T08:13:03;96898.28;;;30.92;48.09
6514;BME280;3290;47.716;9.070;2022-08-05T08:15:29;96901.41;;;31.21;47.09
6514;BME280;3290;47.716;9.070;2022-08-05T08:17:55;96906.03;;;30.94;47.07
6514;BME280;3290;47.716;9.070;2022-08-05T08:20:21;96902.47;;;31.17;46.46
6514;BME280;3290;47.716;9.070;2022-08-05T08:22:53;96906.69;;;31.03;46.59
6514;BME280;3290;47.716;9.070;2022-08-05T08:25:19;96906.72;;;31.72;47.39
6514;BME280;3290;47.716;9.070;2022-08-05T08:27:44;96905.88;;;32.45;41.33
6514;BME280;3290;47.716;9.070;2022-08-05T08:30:10;96905.78;;;32.41;41.17
6514;BME280;3290;47.716;9.070;2022-08-05T08:32:36;96900.97;;;33.03;39.31
6514;BME280;3290;47.716;9.070;2022-08-05T08:35:02;96907.63;;;32.72;40.88
6514;BME280;3290;47.716;9.070;2022-08-05T08:37:27;96907.41;;;32.95;39.98
6514;BME280;3290;47.716;9.070;2022-08-05T08:39:52;96904.56;;;33.45;39.30
6514;BME280;3290;47.716;9.070;2022-08-05T08:42:19;96905.91;;;33.76;38.59
6514;BME280;3290;47.716;9.070;2022-08-05T08:44:46;96905.72;;;33.66;38.88
6514;BME280;3290;47.716;9.070;2022-08-05T08:47:12;96906.03;;;33.42;38.79
6514;BME280;3290;47.716;9.070;2022-08-05T08:49:43;96919.06;;;32.96;39.60
6514;BME280;3290;47.716;9.070;2022-08-05T08:52:16;96918.13;;;33.26;39.38
6514;BME280;3290;47.716;9.070;2022-08-05T08:54:44;96920.19;;;33.51;38.50
6514;BME280;3290;47.716;9.070;2022-08-05T08:57:12;96924.84;;;33.32;38.25
6514;BME280;3290;47.716;9.070;2022-08-05T08:59:38;96918.88;;;34.05;37.10
6514;BME280;3290;47.716;9.070;2022-08-05T09:02:04;96926.31;;;34.30;37.18
6514;BME280;3290;47.716;9.070;2022-08-05T09:04:33;96920.81;;;34.27;36.78
6514;BME280;3290;47.716;9.070;2022-08-05T09:07:00;96919.31;;;34.07;36.89
6514;BME280;3290;47.716;9.070;2022-08-05T09:09:26;96914.28;;;33.46;38.03
6514;BME280;3290;47.716;9.070;2022-08-05T09:11:52;96921.09;;;32.83;38.57
6514;BME280;3290;47.716;9.070;2022-08-05T09:14:17;96909.03;;;33.97;37.95
6514;BME280;3290;47.716;9.070;2022-08-05T09:16:43;96914.31;;;33.87;36.82
6514;BME280;3290;47.716;9.070;2022-08-05T09:19:09;96911.63;;;33.12;38.39
6514;BME280;3290;47.716;9.070;2022-08-05T09:21:34;96916.41;;;33.55;37.65
6514;BME280;3290;47.716;9.070;2022-08-05T09:24:05;96909.88;;;34.23;37.57
6514;BME280;3290;47.716;9.070;2022-08-05T09:26:33;96909.84;;;34.45;36.30
6514;BME280;3290;47.716;9.070;2022-08-05T09:29:00;96900.44;;;34.65;36.54
6514;BME280;3290;47.716;9.070;2022-08-05T09:31:29;96903.97;;;34.43;36.09
6514;BME280;3290;47.716;9.070;2022-08-05T09:33:57;96901.06;;;34.07;35.50
6514;BME280;3290;47.716;9.070;2022-08-05T09:36:25;96894.31;;;34.75;35.96
6514;BME280;3290;47.716;9.070;2022-08-05T09:39:04;96900.53;;;35.01;35.33
6514;BME280;3290;47.716;9.070;2022-08-05T09:41:30;96906.06;;;34.79;35.08
6514;BME280;3290;47.716;9.070;2022-08-05T09:43:55;96901.66;;;34.97;34.80
6514;BME280;3290;47.716;9.070;2022-08-05T09:48:49;96901.94;;;35.18;34.71
6514;BME280;3290;47.716;9.070;2022-08-05T09:51:16;96900.38;;;34.62;34.85
6514;BME280;3290;47.716;9.070;2022-08-05T09:53:47;96897.88;;;35.05;35.27
6514;BME280;3290;47.716;9.070;2022-08-05T09:56:13;96897.97;;;33.27;37.48
6514;BME280;3290;47.716;9.070;2022-08-05T10:01:23;96887.28;;;35.00;35.30
6514;BME280;3290;47.716;9.070;2022-08-05T10:03:59;96887.69;;;33.99;36.09
6514;BME280;3290;47.716;9.070;2022-08-05T10:06:27;96888.28;;;33.89;36.55
6514;BME280;3290;47.716;9.070;2022-08-05T10:08:53;96882.44;;;33.87;36.35
6514;BME280;3290;47.716;9.070;2022-08-05T10:11:18;96880.91;;;34.63;35.34
6514;BME280;3290;47.716;9.070;2022-08-05T10:13:44;96885.75;;;34.73;34.69
6514;BME280;3290;47.716;9.070;2022-08-05T10:18:55;96877.56;;;35.31;34.04
6514;BME280;3290;47.716;9.070;2022-08-05T10:21:20;96880.69;;;35.01;34.24
6514;BME280;3290;47.716;9.070;2022-08-05T10:23:46;96885.06;;;35.74;33.69
6514;BME280;3290;47.716;9.070;2022-08-05T10:26:12;96880.16;;;34.63;36.85
6514;BME280;3290;47.716;9.070;2022-08-05T10:28:37;96882.84;;;33.89;36.74
6514;BME280;3290;47.716;9.070;2022-08-05T10:31:03;96878.94;;;33.46;39.40
6514;BME280;3290;47.716;9.070;2022-08-05T10:33:31;96870.03;;;33.67;40.20
6514;BME280;3290;47.716;9.070;2022-08-05T10:35:58;96881.38;;;32.60;41.04
6514;BME280;3290;47.716;9.070;2022-08-05T10:38:27;96880.38;;;33.21;41.55
6514;BME280;3290;47.716;9.070;2022-08-05T10:40:59;96876.59;;;32.54;41.63
6514;BME280;3290;47.716;9.070;2022-08-05T10:43:59;96868.78;;;33.05;41.31
6514;BME280;3290;47.716;9.070;2022-08-05T10:46:43;96868.66;;;32.45;41.33
6514;BME280;3290;47.716;9.070;2022-08-05T10:49:09;96868.94;;;32.93;40.88
6514;BME280;3290;47.716;9.070;2022-08-05T10:51:52;96861.41;;;32.87;41.38
6514;BME280;3290;47.716;9.070;2022-08-05T10:54:45;96869.97;;;32.36;43.06
6514;BME280;3290;47.716;9.070;2022-08-05T10:57:11;96863.22;;;32.98;42.47
6514;BME280;3290;47.716;9.070;2022-08-05T11:00:05;96859.66;;;32.94;41.46
6514;BME280;3290;47.716;9.070;2022-08-05T11:02:31;96856.09;;;33.31;41.75
6514;BME280;3290;47.716;9.070;2022-08-05T11:04:56;96861.38;;;33.62;40.72
6514;BME280;3290;47.716;9.070;2022-08-05T11:07:23;96851.66;;;33.83;40.27
6514;BME280;3290;47.716;9.070;2022-08-05T11:09:52;96850.59;;;33.28;41.25
6514;BME280;3290;47.716;9.070;2022-08-05T11:15:09;96853.31;;;33.28;40.23
6514;BME280;3290;47.716;9.070;2022-08-05T11:17:40;96849.50;;;33.10;40.26
6514;BME280;3290;47.716;9.070;2022-08-05T11:20:07;96853.47;;;33.98;39.80
6514;BME280;3290;47.716;9.070;2022-08-05T11:22:52;96848.50;;;32.99;40.45
6514;BME280;3290;47.716;9.070;2022-08-05T11:25:30;96851.00;;;33.90;39.00
6514;BME280;3290;47.716;9.070;2022-08-05T11:36:17;96842.81;;;33.26;38.58
6514;BME280;3290;47.716;9.070;2022-08-05T11:41:21;96831.22;;;33.29;41.72
6514;BME280;3290;47.716;9.070;2022-08-05T11:46:35;96820.94;;;33.60;41.19
6514;BME280;3290;47.716;9.070;2022-08-05T11:49:01;96814.84;;;33.89;40.98
6514;BME280;3290;47.716;9.070;2022-08-05T11:51:28;96813.22;;;33.62;40.20
6514;BME280;3290;47.716;9.070;2022-08-05T11:53:55;96818.16;;;33.57;39.17
6514;BME280;3290;47.716;9.070;2022-08-05T11:56:21;96818.22;;;33.38;40.98
6514;BME280;3290;47.716;9.070;2022-08-05T11:58:48;96819.38;;;33.59;40.09
6514;BME280;3290;47.716;9.070;2022-08-05T12:01:19;96822.00;;;33.34;42.20
6514;BME280;3290;47.716;9.070;2022-08-05T12:03:46;96809.91;;;34.46;39.29
6514;BME280;3290;47.716;9.070;2022-08-05T12:06:14;96822.94;;;33.86;40.10
6514;BME280;3290;47.716;9.070;2022-08-05T12:08:43;96814.50;;;33.46;41.49
6514;BME280;3290;47.716;9.070;2022-08-05T12:11:10;96813.81;;;33.53;41.05
6514;BME280;3290;47.716;9.070;2022-08-05T12:14:12;96823.66;;;33.19;40.28
6514;BME280;3290;47.716;9.070;2022-08-05T12:16:39;96816.66;;;32.81;42.26
6514;BME280;3290;47.716;9.070;2022-08-05T12:19:06;96806.03;;;33.96;40.68
6514;BME280;3290;47.716;9.070;2022-08-05T12:21:35;96812.06;;;33.63;38.83
6514;BME280;3290;47.716;9.070;2022-08-05T12:24:17;96806.28;;;33.24;41.37
6514;BME280;3290;47.716;9.070;2022-08-05T12:26:45;96811.38;;;33.48;40.70
6514;BME280;3290;47.716;9.070;2022-08-05T12:29:29;96814.66;;;34.01;39.18
6514;BME280;3290;47.716;9.070;2022-08-05T12:31:56;96797.13;;;33.76;37.44
6514;BME280;3290;47.716;9.070;2022-08-05T12:34:25;96797.63;;;33.59;40.48
6514;BME280;3290;47.716;9.070;2022-08-05T12:36:54;96793.56;;;33.72;39.09
6514;BME280;3290;47.716;9.070;2022-08-05T12:39:23;96782.72;;;33.98;37.09
6514;BME280;3290;47.716;9.070;2022-08-05T12:41:49;96789.41;;;33.56;36.68
6514;BME280;3290;47.716;9.070;2022-08-05T12:44:16;96786.81;;;34.11;36.39
6514;BME280;3290;47.716;9.070;2022-08-05T12:46:42;96785.66;;;33.86;34.18
6514;BME280;3290;47.716;9.070;2022-08-05T12:49:15;96787.91;;;33.84;34.37
6514;BME280;3290;47.716;9.070;2022-08-05T12:54:08;96772.81;;;34.12;35.05
6514;BME280;3290;47.716;9.070;2022-08-05T12:56:40;96774.53;;;33.72;36.08
6514;BME280;3290;47.716;9.070;2022-08-05T12:59:10;96774.97;;;34.00;35.40
6514;BME280;3290;47.716;9.070;2022-08-05T13:01:37;96775.75;;;33.53;37.51
6514;BME280;3290;47.716;9.070;2022-08-05T13:04:03;96770.53;;;33.66;36.79
6514;BME280;3290;47.716;9.070;2022-08-05T13:06:29;96764.03;;;33.49;36.36
6514;BME280;3290;47.716;9.070;2022-08-05T13:08:55;96765.28;;;33.32;37.43
6514;BME280;3290;47.716;9.070;2022-08-05T13:11:27;96764.44;;;33.95;35.99
6514;BME280;3290;47.716;9.070;2022-08-05T13:13:55;96757.72;;;33.89;35.11
6514;BME280;3290;47.716;9.070;2022-08-05T13:16:21;96747.56;;;35.03;34.24
6514;BME280;3290;47.716;9.070;2022-08-05T13:18:54;96749.47;;;35.38;33.75
6514;BME280;3290;47.716;9.070;2022-08-05T13:21:19;96737.00;;;34.65;34.95
6514;BME280;3290;47.716;9.070;2022-08-05T13:23:45;96732.66;;;34.90;34.46
6514;BME280;3290;47.716;9.070;2022-08-05T13:26:11;96723.31;;;34.29;34.94
6514;BME280;3290;47.716;9.070;2022-08-05T13:28:36;96726.31;;;34.82;34.64
6514;BME280;3290;47.716;9.070;2022-08-05T13:31:02;96722.50;;;33.99;36.41
6514;BME280;3290;47.716;9.070;2022-08-05T13:33:27;96714.03;;;34.04;35.82
6514;BME280;3290;47.716;9.070;2022-08-05T13:35:54;96709.69;;;34.58;34.60
6514;BME280;3290;47.716;9.070;2022-08-05T13:38:19;96699.97;;;34.93;34.26
6514;BME280;3290;47.716;9.070;2022-08-05T13:40:45;96697.44;;;34.78;34.83
6514;BME280;3290;47.716;9.070;2022-08-05T13:43:10;96695.34;;;33.77;36.15
6514;BME280;3290;47.716;9.070;2022-08-05T13:45:36;96691.69;;;34.50;36.60
6514;BME280;3290;47.716;9.070;2022-08-05T13:48:01;96678.78;;;34.80;34.59
6514;BME280;3290;47.716;9.070;2022-08-05T13:50:27;96683.25;;;34.30;35.26
6514;BME280;3290;47.716;9.070;2022-08-05T13:52:52;96684.38;;;34.58;35.21
6514;BME280;3290;47.716;9.070;2022-08-05T13:55:18;96686.69;;;33.94;34.92
6514;BME280;3290;47.716;9.070;2022-08-05T13:57:43;96684.53;;;34.36;35.27
6514;BME280;3290;47.716;9.070;2022-08-05T14:00:09;96686.66;;;34.85;36.05